createdAt,value
2018-09-10T00:01:12.692Z,22.90
2018-09-10T00:02:29.377Z,22.90
2018-09-10T00:03:46.047Z,23.00
2018-09-10T00:05:02.819Z,22.90
2018-09-10T00:06:19.685Z,22.90
2018-09-10T00:07:37.141Z,23.00
2018-09-10T00:08:54.133Z,23.00
2018-09-10T00:10:10.778Z,23.00
2018-09-10T00:11:27.605Z,23.00
2018-09-10T00:12:45.499Z,23.00
2018-09-10T00:14:03.438Z,23.00
2018-09-10T00:15:21.552Z,23.00
2018-09-10T00:16:38.674Z,23.00
2018-09-10T00:17:55.255Z,23.00
2018-09-10T00:19:12.097Z,23.00
2018-09-10T00:20:28.930Z,23.00
2018-09-10T00:21:46.487Z,23.00
2018-09-10T00:23:03.030Z,23.00
2018-09-10T00:24:19.801Z,23.00
2018-09-10T00:25:36.519Z,23.00
2018-09-10T00:26:53.628Z,23.00
2018-09-10T00:28:10.978Z,23.00
2018-09-10T00:29:28.045Z,23.00
2018-09-10T00:30:44.852Z,23.00
2018-09-10T00:32:01.688Z,23.00
2018-09-10T00:33:18.364Z,23.00
2018-09-10T00:34:35.271Z,23.00
2018-09-10T00:35:52.931Z,23.00
2018-09-10T00:37:11.203Z,23.00
2018-09-10T00:38:28.584Z,23.00
2018-09-10T00:39:45.812Z,23.00
2018-09-10T00:41:02.593Z,23.00
2018-09-10T00:42:19.524Z,23.00
2018-09-10T00:43:36.406Z,23.00
2018-09-10T00:44:52.912Z,23.00
2018-09-10T00:46:09.867Z,23.00
2018-09-10T00:47:27.520Z,23.00
2018-09-10T00:48:44.446Z,23.00
2018-09-10T00:50:02.496Z,23.00
2018-09-10T00:51:19.508Z,23.00
2018-09-10T00:52:37.228Z,23.00
2018-09-10T00:53:53.919Z,23.00
2018-09-10T00:55:11.374Z,23.00
2018-09-10T00:56:28.394Z,23.00
2018-09-10T00:57:45.055Z,23.00
2018-09-10T01:00:25.688Z,23.00
2018-09-10T01:01:42.541Z,23.00
2018-09-10T01:02:59.259Z,23.00
2018-09-10T01:04:15.858Z,23.00
2018-09-10T01:05:32.657Z,23.00
2018-09-10T01:06:49.538Z,23.00
2018-09-10T01:08:06.426Z,23.00
2018-09-10T01:09:23.145Z,23.00
2018-09-10T01:10:40.061Z,23.10
2018-09-10T01:11:57.887Z,23.00
2018-09-10T01:13:16.128Z,23.00
2018-09-10T01:14:33.116Z,23.00
2018-09-10T01:15:49.828Z,23.00
2018-09-10T01:17:06.560Z,23.00
2018-09-10T01:18:23.446Z,23.00
2018-09-10T01:19:40.241Z,23.00
2018-09-10T01:20:58.064Z,23.00
2018-09-10T01:22:14.842Z,23.10
2018-09-10T01:23:32.268Z,23.00
2018-09-10T01:24:49.671Z,23.10
2018-09-10T01:26:06.973Z,23.10
2018-09-10T01:27:23.906Z,23.10
2018-09-10T01:28:40.938Z,23.10
2018-09-10T01:29:57.885Z,23.10
2018-09-10T01:31:14.568Z,23.10
2018-09-10T01:32:31.411Z,23.00
2018-09-10T01:33:53.420Z,23.10
2018-09-10T01:35:10.788Z,23.10
2018-09-10T01:36:27.705Z,23.10
2018-09-10T01:37:44.593Z,23.10
2018-09-10T01:39:01.508Z,23.10
2018-09-10T01:40:18.352Z,23.10
2018-09-10T01:41:35.449Z,23.10
2018-09-10T01:42:52.069Z,23.10
2018-09-10T01:44:08.818Z,23.10
2018-09-10T01:45:26.257Z,23.10
2018-09-10T01:46:43.177Z,23.10
2018-09-10T01:47:59.829Z,23.10
2018-09-10T01:49:16.709Z,23.10
2018-09-10T01:50:33.953Z,23.10
2018-09-10T01:51:51.499Z,23.10
2018-09-10T01:53:08.292Z,23.00
2018-09-10T01:54:25.261Z,23.10
2018-09-10T01:55:42.433Z,23.10
2018-09-10T01:56:59.958Z,23.10
2018-09-10T01:58:16.695Z,23.10
2018-09-10T01:59:33.906Z,23.10
2018-09-10T02:00:51.677Z,23.10
2018-09-10T02:02:09.078Z,23.10
2018-09-10T02:03:26.030Z,23.10
2018-09-10T02:04:43.191Z,23.10
2018-09-10T02:06:00.506Z,23.10
2018-09-10T02:07:17.063Z,23.10
2018-09-10T02:08:34.327Z,23.10
2018-09-10T02:09:51.576Z,23.10
2018-09-10T02:11:08.236Z,23.00
2018-09-10T02:12:25.915Z,23.00
2018-09-10T02:13:42.996Z,23.00
2018-09-10T02:15:00.346Z,23.00
2018-09-10T02:16:17.766Z,23.10
2018-09-10T02:17:35.067Z,23.10
2018-09-10T02:18:51.936Z,23.10
2018-09-10T02:20:08.605Z,23.10
2018-09-10T02:21:25.385Z,23.10
2018-09-10T02:22:42.341Z,23.10
2018-09-10T02:23:59.306Z,23.10
2018-09-10T02:25:16.707Z,23.10
2018-09-10T02:26:33.563Z,23.10
2018-09-10T02:27:50.453Z,23.10
2018-09-10T02:29:07.546Z,23.10
2018-09-10T02:30:24.995Z,23.10
2018-09-10T02:31:41.765Z,23.10
2018-09-10T02:32:58.250Z,23.10
2018-09-10T02:34:14.937Z,23.10
2018-09-10T02:35:31.822Z,23.10
2018-09-10T02:36:48.665Z,23.10
2018-09-10T02:38:06.006Z,23.10
2018-09-10T02:39:23.183Z,23.10
2018-09-10T02:40:40.078Z,23.10
2018-09-10T02:41:57.621Z,23.10
2018-09-10T02:43:14.312Z,23.10
2018-09-10T02:44:30.941Z,23.10
2018-09-10T02:45:47.898Z,23.10
2018-09-10T02:47:04.538Z,23.10
2018-09-10T02:48:21.372Z,23.10
2018-09-10T02:49:38.108Z,23.10
2018-09-10T02:50:55.029Z,23.10
2018-09-10T02:52:11.764Z,23.00
2018-09-10T02:53:28.561Z,23.10
2018-09-10T02:54:45.561Z,23.10
2018-09-10T02:56:02.915Z,23.10
2018-09-10T02:57:19.614Z,23.10
2018-09-10T02:58:36.523Z,23.10
2018-09-10T02:59:53.109Z,23.10
2018-09-10T03:01:09.853Z,23.10
2018-09-10T03:02:26.881Z,23.10
2018-09-10T03:03:43.639Z,23.00
2018-09-10T03:05:00.601Z,23.10
2018-09-10T03:06:17.564Z,23.10
2018-09-10T03:07:34.368Z,23.10
2018-09-10T03:08:51.359Z,23.10
2018-09-10T03:10:07.945Z,23.10
2018-09-10T03:11:24.617Z,23.10
2018-09-10T03:12:41.520Z,23.10
2018-09-10T03:13:58.148Z,23.10
2018-09-10T03:15:14.932Z,23.10
2018-09-10T03:16:31.459Z,23.10
2018-09-10T03:17:48.748Z,23.10
2018-09-10T03:19:06.345Z,23.10
2018-09-10T03:20:23.757Z,23.10
2018-09-10T03:21:40.374Z,23.10
2018-09-10T03:22:57.425Z,23.10
2018-09-10T03:24:14.532Z,23.10
2018-09-10T03:25:31.003Z,23.10
2018-09-10T03:26:48.321Z,23.10
2018-09-10T03:28:05.748Z,23.10
2018-09-10T03:29:22.417Z,23.10
2018-09-10T03:30:39.257Z,23.10
2018-09-10T03:31:56.587Z,23.10
2018-09-10T03:33:13.608Z,23.10
2018-09-10T03:34:30.177Z,23.10
2018-09-10T03:35:47.024Z,23.00
2018-09-10T03:37:04.182Z,23.00
2018-09-10T03:38:20.783Z,23.00
2018-09-10T03:39:37.594Z,23.10
2018-09-10T03:40:54.553Z,23.10
2018-09-10T03:42:11.254Z,23.10
2018-09-10T03:43:28.041Z,23.00
2018-09-10T03:44:44.990Z,23.00
2018-09-10T03:46:01.740Z,23.10
2018-09-10T03:47:18.550Z,23.00
2018-09-10T03:48:35.128Z,23.00
2018-09-10T03:49:52.616Z,23.00
2018-09-10T03:51:09.801Z,23.10
2018-09-10T03:52:26.633Z,23.00
2018-09-10T03:53:43.408Z,23.00
2018-09-10T03:55:00.417Z,23.00
2018-09-10T03:56:16.981Z,23.00
2018-09-10T03:57:33.695Z,23.00
2018-09-10T03:58:50.977Z,23.00
2018-09-10T04:00:08.681Z,23.10
2018-09-10T04:01:25.293Z,23.00
2018-09-10T04:02:41.951Z,23.00
2018-09-10T04:03:59.105Z,23.00
2018-09-10T04:05:16.554Z,23.00
2018-09-10T04:06:33.446Z,23.00
2018-09-10T04:07:50.137Z,23.00
2018-09-10T04:09:07.729Z,23.00
2018-09-10T04:10:25.071Z,23.00
2018-09-10T04:11:41.585Z,23.00
2018-09-10T04:12:58.808Z,23.00
2018-09-10T04:14:16.060Z,23.00
2018-09-10T04:15:32.691Z,23.00
2018-09-10T04:16:49.281Z,23.00
2018-09-10T04:18:06.121Z,23.00
2018-09-10T04:19:23.158Z,23.00
2018-09-10T04:20:40.746Z,23.00
2018-09-10T04:21:58.042Z,23.00
2018-09-10T04:23:15.796Z,23.00
2018-09-10T04:24:32.725Z,23.00
2018-09-10T04:25:50.309Z,23.00
2018-09-10T04:27:07.165Z,23.00
2018-09-10T04:28:24.678Z,23.00
2018-09-10T04:29:41.459Z,23.10
2018-09-10T04:30:58.554Z,23.10
2018-09-10T04:32:15.725Z,23.10
2018-09-10T04:33:32.752Z,23.10
2018-09-10T04:34:49.259Z,23.00
2018-09-10T04:36:06.465Z,23.00
2018-09-10T04:37:23.041Z,23.00
2018-09-10T04:38:39.998Z,23.00
2018-09-10T04:39:57.019Z,23.00
2018-09-10T04:41:14.627Z,23.00
2018-09-10T04:42:32.059Z,23.00
2018-09-10T04:43:49.211Z,23.00
2018-09-10T04:45:06.477Z,23.00
2018-09-10T04:46:23.232Z,23.00
2018-09-10T04:47:40.337Z,22.90
2018-09-10T04:48:57.247Z,22.90
2018-09-10T04:50:14.301Z,22.80
2018-09-10T04:51:32.690Z,22.80
2018-09-10T04:52:49.653Z,22.80
2018-09-10T04:54:06.609Z,22.80
2018-09-10T04:55:23.516Z,22.70
2018-09-10T04:56:40.125Z,22.80
2018-09-10T04:57:57.243Z,22.80
2018-09-10T04:59:14.713Z,22.70
2018-09-10T05:00:31.638Z,22.70
2018-09-10T05:01:48.356Z,22.70
2018-09-10T05:03:06.094Z,22.70
2018-09-10T05:04:23.053Z,22.70
2018-09-10T05:05:39.773Z,22.70
2018-09-10T05:06:57.421Z,22.70
2018-09-10T05:08:13.897Z,22.60
2018-09-10T05:09:30.865Z,22.70
2018-09-10T05:10:48.069Z,22.70
2018-09-10T05:12:05.617Z,22.70
2018-09-10T05:13:22.427Z,22.70
2018-09-10T05:14:39.372Z,22.60
2018-09-10T05:15:56.023Z,22.60
2018-09-10T05:17:12.638Z,22.50
2018-09-10T05:18:29.626Z,22.50
2018-09-10T05:19:46.323Z,22.50
2018-09-10T05:21:03.195Z,22.50
2018-09-10T05:22:19.759Z,22.50
2018-09-10T05:23:36.925Z,22.50
2018-09-10T05:24:54.735Z,22.50
2018-09-10T05:26:11.721Z,22.40
2018-09-10T05:27:28.252Z,22.50
2018-09-10T05:28:45.065Z,22.50
2018-09-10T05:30:01.783Z,22.50
2018-09-10T05:31:18.500Z,22.60
2018-09-10T05:32:35.457Z,22.50
2018-09-10T05:33:52.089Z,22.50
2018-09-10T05:35:09.285Z,22.50
2018-09-10T05:36:26.733Z,22.50
2018-09-10T05:37:44.349Z,22.50
2018-09-10T05:39:01.010Z,22.60
2018-09-10T05:40:17.851Z,22.60
2018-09-10T05:41:35.649Z,22.60
2018-09-10T05:42:53.234Z,22.60
2018-09-10T05:44:11.386Z,22.60
2018-09-10T05:45:28.802Z,22.60
2018-09-10T05:46:46.194Z,22.60
2018-09-10T05:48:03.137Z,22.60
2018-09-10T05:49:19.970Z,22.60
2018-09-10T05:50:37.976Z,23.10
2018-09-10T05:51:55.101Z,22.60
2018-09-10T05:53:12.014Z,22.60
2018-09-10T05:54:28.793Z,22.50
2018-09-10T05:55:45.749Z,22.50
2018-09-10T05:57:02.750Z,22.50
2018-09-10T05:58:20.313Z,22.50
2018-09-10T05:59:38.069Z,22.50
2018-09-10T06:00:54.590Z,22.50
2018-09-10T06:02:11.382Z,22.50
2018-09-10T06:03:28.194Z,22.50
2018-09-10T06:04:45.090Z,22.50
2018-09-10T06:06:01.906Z,22.50
2018-09-10T06:07:18.459Z,22.60
2018-09-10T06:08:35.619Z,22.60
2018-09-10T06:09:53.008Z,22.50
2018-09-10T06:11:17.717Z,22.50
2018-09-10T06:12:35.310Z,22.20
2018-09-10T06:13:52.179Z,21.70
2018-09-10T06:15:14.854Z,21.50
2018-09-10T06:16:32.044Z,21.30
2018-09-10T06:17:49.657Z,21.20
2018-09-10T06:19:06.914Z,21.10
2018-09-10T06:20:24.423Z,21.20
2018-09-10T06:21:44.228Z,21.20
2018-09-10T06:23:01.143Z,21.20
2018-09-10T06:24:18.801Z,21.10
2018-09-10T06:25:36.238Z,21.00
2018-09-10T06:26:52.845Z,21.10
2018-09-10T06:28:09.706Z,21.00
2018-09-10T06:29:26.609Z,20.80
2018-09-10T06:30:44.567Z,20.80
2018-09-10T06:32:02.139Z,20.80
2018-09-10T06:33:18.968Z,20.90
2018-09-10T06:34:36.678Z,20.80
2018-09-10T06:35:55.270Z,20.80
2018-09-10T06:37:13.081Z,20.90
2018-09-10T06:38:29.542Z,20.90
2018-09-10T06:39:47.901Z,20.80
2018-09-10T06:41:05.039Z,20.80
2018-09-10T06:42:21.684Z,20.80
2018-09-10T06:43:38.232Z,21.00
2018-09-10T06:44:55.059Z,21.10
2018-09-10T06:46:11.946Z,21.10
2018-09-10T06:47:29.722Z,21.10
2018-09-10T06:48:47.593Z,21.20
2018-09-10T06:50:05.974Z,21.30
2018-09-10T06:51:22.873Z,21.40
2018-09-10T06:52:40.260Z,21.30
2018-09-10T06:53:57.529Z,21.30
2018-09-10T06:55:15.214Z,21.30
2018-09-10T06:56:32.621Z,21.40
2018-09-10T06:57:49.547Z,21.40
2018-09-10T06:59:07.089Z,21.40
2018-09-10T07:00:23.942Z,21.50
2018-09-10T07:01:41.300Z,21.50
2018-09-10T07:02:59.945Z,21.50
2018-09-10T07:04:17.120Z,21.50
2018-09-10T07:05:33.720Z,21.50
2018-09-10T07:06:51.299Z,21.50
2018-09-10T07:08:08.281Z,21.50
2018-09-10T07:09:25.271Z,21.50
2018-09-10T07:10:43.053Z,21.50
2018-09-10T07:12:00.256Z,21.50
2018-09-10T07:13:16.829Z,21.50
2018-09-10T07:14:33.458Z,21.50
2018-09-10T07:15:51.395Z,21.40
2018-09-10T07:17:08.071Z,21.40
2018-09-10T07:18:25.059Z,21.40
2018-09-10T07:19:42.607Z,21.40
2018-09-10T07:20:59.406Z,21.40
2018-09-10T07:22:17.225Z,21.40
2018-09-10T07:23:34.575Z,21.30
2018-09-10T07:24:51.287Z,21.20
2018-09-10T07:26:08.065Z,21.20
2018-09-10T07:27:25.219Z,21.30
2018-09-10T07:28:42.646Z,21.40
2018-09-10T07:29:59.582Z,21.40
2018-09-10T07:31:16.505Z,21.30
2018-09-10T07:32:33.329Z,21.30
2018-09-10T07:33:50.147Z,21.30
2018-09-10T07:35:07.873Z,21.50
2018-09-10T07:36:25.222Z,21.40
2018-09-10T07:37:42.003Z,21.30
2018-09-10T07:38:58.825Z,21.40
2018-09-10T07:40:16.209Z,21.30
2018-09-10T07:41:33.031Z,21.20
2018-09-10T07:42:50.707Z,21.20
2018-09-10T07:44:12.444Z,21.20
2018-09-10T07:45:30.562Z,21.30
2018-09-10T07:46:47.811Z,21.40
2018-09-10T07:48:04.791Z,21.50
2018-09-10T07:49:22.233Z,21.50
2018-09-10T07:50:40.250Z,21.50
2018-09-10T07:51:57.589Z,21.20
2018-09-10T07:53:14.345Z,21.50
2018-09-10T07:54:31.037Z,21.60
2018-09-10T07:55:48.436Z,21.50
2018-09-10T07:57:06.193Z,21.50
2018-09-10T07:58:23.121Z,21.60
2018-09-10T07:59:40.657Z,21.50
2018-09-10T08:00:57.906Z,21.30
2018-09-10T08:02:15.265Z,21.40
2018-09-10T08:03:32.835Z,21.50
2018-09-10T08:04:49.673Z,21.60
2018-09-10T08:06:06.474Z,21.70
2018-09-10T08:07:23.366Z,21.70
2018-09-10T08:08:41.081Z,21.70
2018-09-10T08:09:57.935Z,21.60
2018-09-10T08:11:16.845Z,21.60
2018-09-10T08:12:34.786Z,21.50
2018-09-10T08:13:52.089Z,21.60
2018-09-10T08:15:09.404Z,21.70
2018-09-10T08:16:26.915Z,21.70
2018-09-10T08:17:43.665Z,21.70
2018-09-10T08:19:00.719Z,21.80
2018-09-10T08:20:18.157Z,21.80
2018-09-10T08:21:34.902Z,21.80
2018-09-10T08:22:52.007Z,21.80
2018-09-10T08:24:09.102Z,21.80
2018-09-10T08:25:26.489Z,21.80
2018-09-10T08:26:47.071Z,21.70
2018-09-10T08:28:04.052Z,21.70
2018-09-10T08:29:21.464Z,21.70
2018-09-10T08:30:39.309Z,21.70
2018-09-10T08:31:56.604Z,21.70
2018-09-10T08:33:13.502Z,21.60
2018-09-10T08:34:31.430Z,21.70
2018-09-10T08:35:49.120Z,21.60
2018-09-10T08:37:06.718Z,21.50
2018-09-10T08:38:23.716Z,21.60
2018-09-10T08:39:40.426Z,21.70
2018-09-10T08:40:58.348Z,21.80
2018-09-10T08:42:15.136Z,21.80
2018-09-10T08:43:31.841Z,21.80
2018-09-10T08:44:48.546Z,21.90
2018-09-10T08:46:06.169Z,21.90
2018-09-10T08:47:23.040Z,21.80
2018-09-10T08:50:02.407Z,21.90
2018-09-10T08:51:19.278Z,21.90
2018-09-10T08:52:36.153Z,21.90
2018-09-10T08:53:54.226Z,21.80
2018-09-10T08:55:12.100Z,21.80
2018-09-10T08:56:29.387Z,21.90
2018-09-10T08:57:46.117Z,21.90
2018-09-10T08:59:03.618Z,21.90
2018-09-10T09:00:20.986Z,22.00
2018-09-10T09:01:37.739Z,22.00
2018-09-10T09:02:55.393Z,22.00
2018-09-10T09:04:12.710Z,22.00
2018-09-10T09:05:30.748Z,22.00
2018-09-10T09:06:48.188Z,21.90
2018-09-10T09:08:05.688Z,21.80
2018-09-10T09:09:22.862Z,21.80
2018-09-10T09:10:44.461Z,21.80
2018-09-10T09:12:01.593Z,21.90
2018-09-10T09:13:19.347Z,21.90
2018-09-10T09:14:38.073Z,21.90
2018-09-10T09:15:55.721Z,22.00
2018-09-10T09:17:13.033Z,21.80
2018-09-10T09:18:30.233Z,21.80
2018-09-10T09:19:47.454Z,21.90
2018-09-10T09:21:05.109Z,22.00
2018-09-10T09:22:22.352Z,22.00
2018-09-10T09:23:39.952Z,22.00
2018-09-10T09:24:57.718Z,22.00
2018-09-10T09:26:15.737Z,22.00
2018-09-10T09:27:33.626Z,22.00
2018-09-10T09:28:52.156Z,22.00
2018-09-10T09:30:09.876Z,22.00
2018-09-10T09:31:27.379Z,21.90
2018-09-10T09:32:44.340Z,21.90
2018-09-10T09:34:01.593Z,22.00
2018-09-10T09:35:33.493Z,22.10
2018-09-10T09:36:55.411Z,22.10
2018-09-10T09:38:18.905Z,22.10
2018-09-10T09:39:41.221Z,22.00
2018-09-10T09:41:04.133Z,22.00
2018-09-10T09:42:26.619Z,22.10
2018-09-10T09:43:49.493Z,22.10
2018-09-10T09:45:12.334Z,22.20
2018-09-10T09:46:30.452Z,22.20
2018-09-10T09:47:48.224Z,22.20
2018-09-10T09:49:05.022Z,22.20
2018-09-10T09:50:24.925Z,22.20
2018-09-10T09:51:41.560Z,22.10
2018-09-10T09:52:58.483Z,22.00
2018-09-10T09:54:16.591Z,22.10
2018-09-10T09:55:33.635Z,22.10
2018-09-10T09:56:53.146Z,22.00
2018-09-10T09:58:10.257Z,22.10
2018-09-10T09:59:27.765Z,22.10
2018-09-10T10:00:49.630Z,22.10
2018-09-10T10:02:12.617Z,22.10
2018-09-10T10:03:35.562Z,22.10
2018-09-10T10:04:52.574Z,22.20
2018-09-10T10:06:09.509Z,22.20
2018-09-10T10:07:26.987Z,22.20
2018-09-10T10:08:43.711Z,22.30
2018-09-10T10:10:00.437Z,22.30
2018-09-10T10:11:17.977Z,22.30
2018-09-10T10:12:34.673Z,22.30
2018-09-10T10:13:52.345Z,22.40
2018-09-10T10:15:09.226Z,22.50
2018-09-10T10:16:26.329Z,22.40
2018-09-10T10:17:43.852Z,22.50
2018-09-10T10:19:01.569Z,22.50
2018-09-10T10:20:18.875Z,22.50
2018-09-10T10:21:36.014Z,22.50
2018-09-10T10:22:52.875Z,22.50
2018-09-10T10:24:10.555Z,22.50
2018-09-10T10:25:27.248Z,22.50
2018-09-10T10:26:44.914Z,22.60
2018-09-10T10:28:01.622Z,22.60
2018-09-10T10:29:18.621Z,22.70
2018-09-10T10:30:36.070Z,22.70
2018-09-10T10:31:53.058Z,22.70
2018-09-10T10:33:09.975Z,22.80
2018-09-10T10:34:27.724Z,22.80
2018-09-10T10:35:45.305Z,22.70
2018-09-10T10:37:01.862Z,22.70
2018-09-10T10:38:18.790Z,22.90
2018-09-10T10:39:35.552Z,22.80
2018-09-10T10:40:52.674Z,22.70
2018-09-10T10:42:10.558Z,22.70
2018-09-10T10:43:28.118Z,22.80
2018-09-10T10:44:44.853Z,22.80
2018-09-10T10:46:01.568Z,22.90
2018-09-10T10:47:18.875Z,22.90
2018-09-10T10:48:36.180Z,22.90
2018-09-10T10:49:53.100Z,23.00
2018-09-10T10:51:10.731Z,23.10
2018-09-10T10:52:28.719Z,23.20
2018-09-10T10:53:46.134Z,23.20
2018-09-10T10:55:02.934Z,23.00
2018-09-10T10:56:19.794Z,23.00
2018-09-10T10:57:37.170Z,22.90
2018-09-10T10:58:54.241Z,23.00
2018-09-10T11:00:11.673Z,23.10
2018-09-10T11:01:28.607Z,23.10
2018-09-10T11:02:45.507Z,23.10
2018-09-10T11:04:02.522Z,23.20
2018-09-10T11:05:20.189Z,23.20
2018-09-10T11:06:36.696Z,23.10
2018-09-10T11:07:53.556Z,23.00
2018-09-10T11:09:12.329Z,22.90
2018-09-10T11:10:29.989Z,23.00
2018-09-10T11:11:46.885Z,23.00
2018-09-10T11:13:03.642Z,22.90
2018-09-10T11:14:21.276Z,22.90
2018-09-10T11:15:38.185Z,22.90
2018-09-10T11:16:54.819Z,22.90
2018-09-10T11:18:12.405Z,22.90
2018-09-10T11:19:29.338Z,23.00
2018-09-10T11:20:45.965Z,23.10
2018-09-10T11:22:04.824Z,23.00
2018-09-10T11:23:21.796Z,23.10
2018-09-10T11:24:38.994Z,23.00
2018-09-10T11:25:56.249Z,23.00
2018-09-10T11:27:14.008Z,23.10
2018-09-10T11:28:31.039Z,23.00
2018-09-10T11:29:52.696Z,22.90
2018-09-10T11:31:10.371Z,22.90
2018-09-10T11:32:27.855Z,22.90
2018-09-10T11:33:45.294Z,23.00
2018-09-10T11:35:02.204Z,23.00
2018-09-10T11:36:19.001Z,23.10
2018-09-10T11:37:36.067Z,23.00
2018-09-10T11:38:53.806Z,23.10
2018-09-10T11:40:11.301Z,23.10
2018-09-10T11:41:28.324Z,22.90
2018-09-10T11:42:45.043Z,23.00
2018-09-10T11:44:01.877Z,23.10
2018-09-10T11:45:18.834Z,23.30
2018-09-10T11:46:36.139Z,23.30
2018-09-10T11:47:53.880Z,23.10
2018-09-10T11:49:11.403Z,23.00
2018-09-10T11:50:28.006Z,23.00
2018-09-10T11:51:45.251Z,23.00
2018-09-10T11:53:03.500Z,23.20
2018-09-10T11:54:20.555Z,23.20
2018-09-10T11:55:38.494Z,23.20
2018-09-10T11:56:55.711Z,23.20
2018-09-10T11:58:13.325Z,23.10
2018-09-10T11:59:30.413Z,23.20
2018-09-10T12:00:47.210Z,23.10
2018-09-10T12:02:05.233Z,23.10
2018-09-10T12:03:22.851Z,23.10
2018-09-10T12:04:39.610Z,23.00
2018-09-10T12:05:56.169Z,23.00
2018-09-10T12:07:13.259Z,23.00
2018-09-10T12:08:30.855Z,22.90
2018-09-10T12:09:48.211Z,22.90
2018-09-10T12:11:06.112Z,22.90
2018-09-10T12:12:24.029Z,22.90
2018-09-10T12:13:42.683Z,22.90
2018-09-10T12:15:00.505Z,22.90
2018-09-10T12:16:17.993Z,23.00
2018-09-10T12:17:34.975Z,23.10
2018-09-10T12:18:52.469Z,23.30
2018-09-10T12:20:09.885Z,23.30
2018-09-10T12:21:26.829Z,23.30
2018-09-10T12:22:43.924Z,23.40
2018-09-10T12:24:01.497Z,23.50
2018-09-10T12:25:22.201Z,24.00
2018-09-10T12:26:40.132Z,24.00
2018-09-10T12:27:57.606Z,23.90
2018-09-10T12:29:14.599Z,24.10
2018-09-10T12:30:31.313Z,24.10
2018-09-10T12:31:48.327Z,24.30
2018-09-10T12:33:06.224Z,24.30
2018-09-10T12:34:23.958Z,24.40
2018-09-10T12:35:41.700Z,24.30
2018-09-10T12:36:59.144Z,24.40
2018-09-10T12:38:16.520Z,24.30
2018-09-10T12:39:33.964Z,24.40
2018-09-10T12:40:51.370Z,24.40
2018-09-10T12:42:07.944Z,24.30
2018-09-10T12:43:25.006Z,24.40
2018-09-10T12:44:42.428Z,24.30
2018-09-10T12:45:59.081Z,24.40
2018-09-10T12:47:16.764Z,24.50
2018-09-10T12:48:34.557Z,24.30
2018-09-10T12:49:51.403Z,24.30
2018-09-10T12:51:08.876Z,24.30
2018-09-10T12:52:26.482Z,24.50
2018-09-10T12:53:43.199Z,24.50
2018-09-10T12:55:00.017Z,24.40
2018-09-10T12:56:17.052Z,24.40
2018-09-10T12:57:34.490Z,24.40
2018-09-10T12:58:51.631Z,24.40
2018-09-10T13:00:08.344Z,24.50
2018-09-10T13:01:25.232Z,24.50
2018-09-10T13:02:41.964Z,24.70
2018-09-10T13:03:58.529Z,25.00
2018-09-10T13:05:15.406Z,24.90
2018-09-10T13:06:32.865Z,25.20
2018-09-10T13:07:50.645Z,25.20
2018-09-10T13:09:08.145Z,25.20
2018-09-10T13:10:25.188Z,25.20
2018-09-10T13:11:42.142Z,25.20
2018-09-10T13:12:58.935Z,25.20
2018-09-10T13:14:15.837Z,25.00
2018-09-10T13:15:39.669Z,25.00
2018-09-10T13:16:56.399Z,25.10
2018-09-10T13:18:14.000Z,25.10
2018-09-10T13:19:30.679Z,25.20
2018-09-10T13:20:47.347Z,25.10
2018-09-10T13:22:04.109Z,25.40
2018-09-10T13:23:20.881Z,25.60
2018-09-10T13:24:37.773Z,25.80
2018-09-10T13:25:54.898Z,25.70
2018-09-10T13:27:12.465Z,25.60
2018-09-10T13:28:29.053Z,25.80
2018-09-10T13:29:45.905Z,26.00
2018-09-10T13:31:02.499Z,26.00
2018-09-10T13:32:19.396Z,25.70
2018-09-10T13:33:36.065Z,25.70
2018-09-10T13:34:52.749Z,25.60
2018-09-10T13:36:09.450Z,25.70
2018-09-10T13:37:32.714Z,25.80
2018-09-10T13:38:49.956Z,25.80
2018-09-10T13:40:06.792Z,25.90
2018-09-10T13:41:23.443Z,25.80
2018-09-10T13:42:40.173Z,26.00
2018-09-10T13:43:57.204Z,25.90
2018-09-10T13:45:14.577Z,25.80
2018-09-10T13:46:32.450Z,25.60
2018-09-10T13:47:51.354Z,25.60
2018-09-10T13:49:08.154Z,25.60
2018-09-10T13:50:25.213Z,25.60
2018-09-10T13:51:42.479Z,25.70
2018-09-10T13:53:01.042Z,25.90
2018-09-10T13:54:18.214Z,25.90
2018-09-10T13:55:35.809Z,25.80
2018-09-10T13:56:52.838Z,25.70
2018-09-10T13:58:10.946Z,25.70
2018-09-10T13:59:28.054Z,25.80
2018-09-10T14:00:45.426Z,25.90
2018-09-10T14:02:02.563Z,26.10
2018-09-10T14:03:19.840Z,26.10
2018-09-10T14:04:36.365Z,25.90
2018-09-10T14:05:53.026Z,25.90
2018-09-10T14:07:09.992Z,26.00
2018-09-10T14:08:27.812Z,26.00
2018-09-10T14:09:45.539Z,26.20
2018-09-10T14:11:02.781Z,25.80
2018-09-10T14:12:19.333Z,25.40
2018-09-10T14:13:36.062Z,25.20
2018-09-10T14:14:53.017Z,25.10
2018-09-10T14:16:09.469Z,24.90
2018-09-10T14:17:26.180Z,24.90
2018-09-10T14:18:43.085Z,25.10
2018-09-10T14:19:59.617Z,25.10
2018-09-10T14:21:16.597Z,25.20
2018-09-10T14:22:34.190Z,25.20
2018-09-10T14:23:51.548Z,25.10
2018-09-10T14:25:08.180Z,25.10
2018-09-10T14:26:26.486Z,25.10
2018-09-10T14:27:43.425Z,25.40
2018-09-10T14:29:00.194Z,25.70
2018-09-10T14:30:16.683Z,25.50
2018-09-10T14:31:34.350Z,25.20
2018-09-10T14:32:51.312Z,25.10
2018-09-10T14:34:07.837Z,25.10
2018-09-10T14:35:27.497Z,25.00
2018-09-10T14:36:44.833Z,24.90
2018-09-10T14:38:02.479Z,24.80
2018-09-10T14:39:20.544Z,24.80
2018-09-10T14:40:37.496Z,24.70
2018-09-10T14:41:54.380Z,24.60
2018-09-10T14:43:12.054Z,24.70
2018-09-10T14:44:29.298Z,24.70
2018-09-10T14:45:52.737Z,24.60
2018-09-10T14:47:10.225Z,24.60
2018-09-10T14:48:27.412Z,24.70
2018-09-10T14:49:44.433Z,24.60
2018-09-10T14:51:01.628Z,24.60
2018-09-10T14:52:18.305Z,24.50
2018-09-10T14:53:35.614Z,24.40
2018-09-10T14:54:52.596Z,24.50
2018-09-10T14:56:10.222Z,24.40
2018-09-10T14:57:26.849Z,24.40
2018-09-10T14:58:44.445Z,24.40
2018-09-10T15:00:01.989Z,24.40
2018-09-10T15:01:19.484Z,24.40
2018-09-10T15:02:37.702Z,24.40
2018-09-10T15:03:54.897Z,24.40
2018-09-10T15:05:12.124Z,24.50
2018-09-10T15:06:29.318Z,24.60
2018-09-10T15:07:46.795Z,24.70
2018-09-10T15:09:05.303Z,24.70
2018-09-10T15:10:22.675Z,24.70
2018-09-10T15:11:40.201Z,24.70
2018-09-10T15:12:56.974Z,24.70
2018-09-10T15:14:14.300Z,24.70
2018-09-10T15:15:31.594Z,24.70
2018-09-10T15:16:48.304Z,24.80
2018-09-10T15:18:05.056Z,24.80
2018-09-10T15:19:21.902Z,24.80
2018-09-10T15:20:39.441Z,24.80
2018-09-10T15:21:56.404Z,24.80
2018-09-10T15:23:13.273Z,24.70
2018-09-10T15:24:30.928Z,24.70
2018-09-10T15:25:47.582Z,24.70
2018-09-10T15:27:04.134Z,24.60
2018-09-10T15:28:21.101Z,24.50
2018-09-10T15:29:37.839Z,24.50
2018-09-10T15:30:55.333Z,24.40
2018-09-10T15:32:12.103Z,24.40
2018-09-10T15:33:29.544Z,24.40
2018-09-10T15:34:46.484Z,24.40
2018-09-10T15:36:04.381Z,24.40
2018-09-10T15:37:21.566Z,24.40
2018-09-10T15:38:39.161Z,24.30
2018-09-10T15:40:02.275Z,24.30
2018-09-10T15:41:19.339Z,24.30
2018-09-10T15:42:37.080Z,24.30
2018-09-10T15:43:53.748Z,24.20
2018-09-10T15:45:10.465Z,24.20
2018-09-10T15:46:27.708Z,24.30
2018-09-10T15:47:44.946Z,24.20
2018-09-10T15:49:02.278Z,24.30
2018-09-10T15:50:19.109Z,24.20
2018-09-10T15:51:35.915Z,24.20
2018-09-10T15:52:53.309Z,24.20
2018-09-10T15:54:10.011Z,24.20
2018-09-10T15:55:26.827Z,24.20
2018-09-10T15:56:43.452Z,24.20
2018-09-10T15:58:00.009Z,24.20
2018-09-10T15:59:17.436Z,24.20
2018-09-10T16:00:34.781Z,24.20
2018-09-10T16:01:52.252Z,24.20
2018-09-10T16:03:09.170Z,24.20
2018-09-10T16:04:26.447Z,24.20
2018-09-10T16:05:43.447Z,24.20
2018-09-10T16:07:00.041Z,24.20
2018-09-10T16:08:17.132Z,24.20
2018-09-10T16:09:34.464Z,24.20
2018-09-10T16:10:51.558Z,24.20
2018-09-10T16:12:08.961Z,24.20
2018-09-10T16:13:25.644Z,24.20
2018-09-10T16:14:42.468Z,24.10
2018-09-10T16:15:59.984Z,24.10
2018-09-10T16:17:17.018Z,24.20
2018-09-10T16:18:37.282Z,24.10
2018-09-10T16:19:54.800Z,24.10
2018-09-10T16:21:11.750Z,24.20
2018-09-10T16:22:28.405Z,24.20
2018-09-10T16:23:45.411Z,24.10
2018-09-10T16:25:03.345Z,24.20
2018-09-10T16:26:21.514Z,24.10
2018-09-10T16:27:38.457Z,24.20
2018-09-10T16:28:56.249Z,24.20
2018-09-10T16:30:13.784Z,24.20
2018-09-10T16:31:31.296Z,24.20
2018-09-10T16:32:49.337Z,24.20
2018-09-10T16:34:06.203Z,24.20
2018-09-10T16:35:23.662Z,24.10
2018-09-10T16:36:40.716Z,24.10
2018-09-10T16:37:58.123Z,24.20
2018-09-10T16:39:14.758Z,24.10